Time;durP1;ratioP1;P1;durP2;ratioP2;P2;SDS_P1;SDS_P2;PMS_P1;PMS_P2;Temp;Humidity;BMP_temperature;BMP_pressure;BME280_temperature;BME280_humidity;BME280_pressure;Samples;Min_cycle;Max_cycle;Signal;HPM_P1;HPM_P2
2021/01/16 00:00:01;;;;;;;19.23;10.43;;;;;;;0.90;96.68;101711.75;5020245;28;20071;-67
2021/01/16 00:02:45;;;;;;;16.85;9.48;;;;;;;0.90;97.03;101706.50;5020016;28;20048;-67
2021/01/16 00:05:30;;;;;;;19.25;10.75;;;;;;;0.91;97.12;101708.22;5035061;28;20540;-67
2021/01/16 00:08:15;;;;;;;16.45;9.02;;;;;;;0.91;98.08;101710.84;5019794;28;20053;-67
2021/01/16 00:11:00;;;;;;;17.67;9.43;;;;;;;0.93;97.99;101706.38;5035220;28;20611;-67
2021/01/16 00:13:44;;;;;;;18.45;9.40;;;;;;;0.93;98.06;101709.00;5019447;28;20075;-67
2021/01/16 00:16:28;;;;;;;17.50;10.48;;;;;;;0.93;98.87;101695.88;5019837;28;20541;-68
2021/01/16 00:19:12;;;;;;;13.75;8.63;;;;;;;0.94;99.31;101696.75;5034545;28;20087;-67
2021/01/16 00:21:56;;;;;;;16.33;9.68;;;;;;;0.94;98.75;101697.59;5034529;28;20048;-67
2021/01/16 00:24:40;;;;;;;19.02;10.15;;;;;;;0.94;98.82;101694.97;5034406;28;20163;-68
2021/01/16 00:27:26;;;;;;;17.05;9.65;;;;;;;0.96;99.25;101695.78;5034396;28;20099;-67
2021/01/16 00:30:10;;;;;;;16.50;10.43;;;;;;;0.97;99.07;101697.53;5019352;28;20048;-68
2021/01/16 00:32:56;;;;;;;17.13;9.73;;;;;;;0.98;98.86;101688.72;5005651;28;20044;-67
2021/01/16 00:35:40;;;;;;;18.83;10.40;;;;;;;0.93;98.68;101685.38;5019099;28;20637;-67
2021/01/16 00:38:24;;;;;;;16.48;11.20;;;;;;;0.91;98.03;101697.72;5034434;28;20060;-67
2021/01/16 00:41:08;;;;;;;18.48;9.88;;;;;;;0.90;98.55;101685.50;5019661;28;20047;-67
2021/01/16 00:43:53;;;;;;;15.75;9.40;;;;;;;0.91;98.40;101687.19;5019095;28;20413;-67
2021/01/16 00:46:37;;;;;;;17.52;10.10;;;;;;;0.89;98.07;101689.03;5019315;28;20052;-67
2021/01/16 00:49:21;;;;;;;22.15;10.88;;;;;;;0.89;97.55;101683.78;5019337;28;20144;-67
2021/01/16 00:52:05;;;;;;;18.90;9.65;;;;;;;0.88;97.71;101689.94;5034316;28;20402;-68
2021/01/16 00:54:49;;;;;;;17.42;10.15;;;;;;;0.86;97.53;101683.84;5019103;28;20424;-67
2021/01/16 00:57:33;;;;;;;19.63;11.18;;;;;;;0.85;97.18;101682.13;5033813;28;20043;-67
2021/01/16 01:00:19;;;;;;;19.05;10.35;;;;;;;0.85;96.99;101686.53;5033755;28;20421;-68
2021/01/16 01:03:03;;;;;;;18.38;9.98;;;;;;;0.90;95.58;101689.88;5018737;28;20083;-67
2021/01/16 01:05:48;;;;;;;17.35;9.88;;;;;;;0.82;95.96;101684.03;5018723;28;20048;-67
2021/01/16 01:08:32;;;;;;;23.05;11.82;;;;;;;0.81;97.51;101691.03;5018760;28;20075;-67
2021/01/16 01:11:16;;;;;;;17.70;10.27;;;;;;;0.78;97.03;101687.63;5033560;28;20123;-67
2021/01/16 01:14:00;;;;;;;19.48;11.05;;;;;;;0.83;96.47;101688.38;5033640;28;20040;-67
2021/01/16 01:16:44;;;;;;;19.42;9.68;;;;;;;0.73;96.67;101695.66;5033467;28;20083;-67
2021/01/16 01:19:28;;;;;;;;;;;;;;;0.72;96.75;101696.56;5019220;28;20060;-67
2021/01/16 01:22:12;;;;;;;20.35;11.82;;;;;;;0.82;96.17;101687.50;5018496;28;20008;-67
2021/01/16 01:24:59;;;;;;;;;;;;;;;0.80;95.72;101691.94;5033851;28;20052;-67
2021/01/16 01:27:50;;;;;;;20.50;10.77;;;;;;;0.80;95.67;101697.19;5033351;28;19919;-67
2021/01/16 01:30:34;;;;;;;22.10;11.50;;;;;;;0.80;95.70;101689.31;5018695;28;20134;-67
2021/01/16 01:33:18;;;;;;;18.77;10.55;;;;;;;0.74;96.96;101692.13;5033269;28;20044;-67
2021/01/16 01:36:03;;;;;;;16.80;9.60;;;;;;;0.72;97.41;101707.06;5018487;28;20477;-67
2021/01/16 01:38:46;;;;;;;19.75;9.40;;;;;;;0.68;98.31;101702.84;5033487;28;20124;-67
2021/01/16 01:41:30;;;;;;;16.88;10.00;;;;;;;0.63;98.49;101709.97;5033452;28;20056;-67
2021/01/16 01:44:14;;;;;;;18.40;10.77;;;;;;;0.67;96.52;101701.13;5004324;28;20124;-67
2021/01/16 01:46:59;;;;;;;21.58;9.60;;;;;;;0.67;94.77;101708.13;5018457;28;20056;-67
2021/01/16 01:49:46;;;;;;;16.20;9.10;;;;;;;0.74;95.21;101699.16;5032376;28;20056;-67
2021/01/16 01:52:31;;;;;;;17.13;9.98;;;;;;;0.66;95.12;101699.38;5018187;28;20056;-67
2021/01/16 01:55:15;;;;;;;18.20;10.52;;;;;;;0.69;94.58;101701.91;5033104;28;20052;-67
2021/01/16 01:57:59;;;;;;;18.60;10.30;;;;;;;0.61;95.38;101705.66;5032990;28;20505;-67
2021/01/16 02:00:44;;;;;;;19.25;10.10;;;;;;;0.61;96.22;101711.78;5017991;28;20465;-67
2021/01/16 02:03:31;;;;;;;17.83;10.00;;;;;;;0.49;97.16;101709.56;5018016;28;20417;-67
2021/01/16 02:06:16;;;;;;;20.02;10.38;;;;;;;0.42;98.16;101718.50;5032926;28;20052;-67
2021/01/16 02:09:00;;;;;;;15.68;9.23;;;;;;;0.38;99.39;101724.75;5032902;28;20060;-67
2021/01/16 02:11:44;;;;;;;17.58;10.15;;;;;;;0.36;99.75;101725.69;5018091;28;20099;-67
2021/01/16 02:14:32;;;;;;;21.80;11.27;;;;;;;0.30;99.20;101721.50;5017953;28;20136;-67
2021/01/16 02:17:18;;;;;;;20.73;9.98;;;;;;;0.38;97.86;101711.63;5017965;28;20064;-67
2021/01/16 02:20:09;;;;;;;18.17;9.95;;;;;;;0.46;98.10;101714.03;5018383;28;20088;-67
2021/01/16 02:23:11;;;;;;;20.30;11.00;;;;;;;0.41;98.35;101708.91;5017981;28;20496;-67
2021/01/16 02:26:08;;;;;;;19.75;10.98;;;;;;;0.42;98.98;101708.00;5032689;28;20052;-67
2021/01/16 02:28:55;;;;;;;21.15;10.43;;;;;;;0.39;99.54;101702.88;5018011;28;20045;-67
2021/01/16 02:31:40;;;;;;;18.42;10.60;;;;;;;0.42;100.00;101701.91;5018076;28;20410;-67
2021/01/16 02:34:32;;;;;;;20.60;11.57;;;;;;;0.48;98.14;101704.34;5017901;28;20512;-67
2021/01/16 02:37:28;;;;;;;17.33;10.45;;;;;;;0.52;96.57;101700.75;5018012;28;20040;-67
2021/01/16 02:40:20;;;;;;;23.25;11.63;;;;;;;0.49;96.18;101704.31;5017844;28;20556;-67
2021/01/16 02:43:25;;;;;;;21.83;10.77;;;;;;;0.48;96.10;101699.97;5017581;28;20129;-67
2021/01/16 02:46:52;;;;;;;22.40;11.88;;;;;;;0.41;97.39;101701.03;5032892;28;20107;-67
2021/01/16 02:49:51;;;;;;;22.23;12.52;;;;;;;0.37;97.91;101704.69;4938839;29;20130;-67
2021/01/16 02:52:44;;;;;;;24.13;12.23;;;;;;;0.38;97.96;101700.28;4939198;29;20047;-67
2021/01/16 02:55:29;;;;;;;24.17;12.45;;;;;;;0.34;97.76;101696.88;5032485;28;20135;-67
2021/01/16 02:58:12;;;;;;;27.65;13.10;;;;;;;0.37;97.71;101698.56;5032440;28;20052;-67
2021/01/16 03:00:57;;;;;;;30.13;15.05;;;;;;;0.31;97.83;101683.88;5006569;28;20418;-67
2021/01/16 03:03:41;;;;;;;26.65;14.75;;;;;;;0.31;98.32;101693.50;5035805;28;20128;-67
2021/01/16 03:06:25;;;;;;;28.65;14.90;;;;;;;0.30;97.67;101692.63;5036211;28;20413;-67
2021/01/16 03:09:10;;;;;;;29.67;15.75;;;;;;;0.25;98.06;101697.16;5036146;28;20064;-67
2021/01/16 03:11:55;;;;;;;27.35;14.18;;;;;;;0.24;98.44;101707.72;5035982;28;20041;-67
2021/01/16 03:14:54;;;;;;;32.10;15.52;;;;;;;0.26;98.59;101695.41;5020777;28;20099;-67
2021/01/16 03:17:55;;;;;;;32.80;14.60;;;;;;;0.22;98.31;101688.53;5020709;28;20083;-67
2021/01/16 03:20:39;;;;;;;29.48;14.98;;;;;;;0.18;98.03;101693.00;5020630;28;20106;-67
2021/01/16 03:23:24;;;;;;;29.42;16.50;;;;;;;0.14;98.43;101695.75;5020697;28;20100;-67
2021/01/16 03:26:08;;;;;;;28.30;15.70;;;;;;;0.10;99.10;101689.75;5035543;28;20254;-67
2021/01/16 03:28:52;;;;;;;29.65;15.90;;;;;;;0.12;99.45;101685.31;5035813;28;20187;-67
2021/01/16 03:31:36;;;;;;;29.85;15.27;;;;;;;0.13;99.34;101689.66;5035452;28;20430;-67
2021/01/16 03:34:20;;;;;;;31.88;16.60;;;;;;;0.07;99.26;101697.72;5035341;28;20056;-67
2021/01/16 03:37:06;;;;;;;30.20;13.93;;;;;;;0.15;99.22;101702.72;5020389;28;20525;-67
2021/01/16 03:39:50;;;;;;;33.80;16.58;;;;;;;0.09;98.73;101708.13;5035259;28;20056;-67
2021/01/16 03:42:37;;;;;;;33.70;17.50;;;;;;;0.03;99.16;101708.31;5020417;28;20044;-67
2021/01/16 03:45:22;;;;;;;33.33;15.98;;;;;;;-0.07;99.18;101701.63;5018420;23;20065;-68
2021/01/16 03:48:07;;;;;;;32.88;17.38;;;;;;;-0.07;99.46;101706.88;4975734;28;20077;-66
2021/01/16 03:50:51;;;;;;;32.30;16.70;;;;;;;-0.11;99.63;101707.00;4975827;28;20046;-67
2021/01/16 03:53:35;;;;;;;;;;;;;;;-0.10;99.97;101700.84;4976660;28;20495;-64
2021/01/16 03:56:19;;;;;;;29.60;14.88;;;;;;;-0.12;99.89;101703.50;4976924;28;19925;-66
2021/01/16 03:59:05;;;;;;;;;;;;;;;-0.12;100.00;101702.66;4977110;28;20502;-65
2021/01/16 04:01:50;;;;;;;33.35;17.27;;;;;;;-0.10;100.00;101700.84;4975652;28;19933;-66
2021/01/16 04:04:34;;;;;;;36.15;18.08;;;;;;;-0.08;100.00;101709.53;4976024;28;20109;-67
2021/01/16 04:07:18;;;;;;;33.90;17.45;;;;;;;-0.14;100.00;101709.72;4975226;28;20169;-67
2021/01/16 04:10:05;;;;;;;32.35;16.77;;;;;;;-0.25;100.00;101707.38;4976259;28;20065;-66
2021/01/16 04:12:49;;;;;;;36.97;18.00;;;;;;;-0.26;100.00;101705.66;4961239;28;20062;-66
2021/01/16 04:15:32;;;;;;;;;;;;;;;-0.24;100.00;101700.38;4976967;28;20097;-66
2021/01/16 04:18:16;;;;;;;29.50;15.65;;;;;;;-0.30;100.00;101705.78;4976042;28;20326;-66
2021/01/16 04:21:02;;;;;;;38.28;16.83;;;;;;;-0.35;100.00;101707.69;4975306;28;20118;-66
2021/01/16 04:23:46;;;;;;;33.78;18.35;;;;;;;-0.39;100.00;101700.78;4975939;28;20106;-66
2021/01/16 04:26:29;;;;;;;32.85;17.15;;;;;;;-0.43;100.00;101701.78;4974704;28;20129;-66
2021/01/16 04:29:14;;;;;;;28.50;14.13;;;;;;;-0.44;100.00;101705.31;4961250;28;20125;-66
2021/01/16 04:31:58;;;;;;;33.95;17.67;;;;;;;-0.52;100.00;101694.16;4975044;28;20046;-66
2021/01/16 04:34:42;;;;;;;39.55;19.75;;;;;;;-0.47;100.00;101700.13;4975095;28;20109;-66
2021/01/16 04:37:26;;;;;;;31.90;17.48;;;;;;;-0.53;100.00;101703.78;4975781;28;20137;-66
2021/01/16 04:40:12;;;;;;;35.03;17.95;;;;;;;-0.47;100.00;101694.88;4974794;28;20054;-66
2021/01/16 04:42:55;;;;;;;34.13;18.33;;;;;;;-0.54;100.00;101699.44;4974779;28;20054;-67
2021/01/16 04:45:41;;;;;;;33.10;18.63;;;;;;;-0.56;100.00;101710.84;4974420;28;20077;-66
2021/01/16 04:48:25;;;;;;;34.28;17.23;;;;;;;-0.53;100.00;101710.78;4975679;28;20053;-66
2021/01/16 04:51:11;;;;;;;32.00;15.40;;;;;;;-0.61;100.00;101710.13;4975580;28;20134;-66
2021/01/16 04:53:56;;;;;;;33.25;17.60;;;;;;;-0.69;100.00;101704.22;4974758;28;20129;-66
2021/01/16 04:56:41;;;;;;;34.53;17.33;;;;;;;-0.74;100.00;101709.56;4960752;28;20518;-66
2021/01/16 04:59:25;;;;;;;33.80;17.60;;;;;;;-0.68;100.00;101713.78;4974438;28;20158;-66
2021/01/16 05:02:10;;;;;;;35.22;17.60;;;;;;;-0.70;100.00;101707.72;4975152;28;20101;-67
2021/01/16 05:04:58;;;;;;;31.25;15.40;;;;;;;-0.68;100.00;101717.28;4974449;28;20126;-65
2021/01/16 05:07:43;;;;;;;31.38;17.17;;;;;;;-0.75;100.00;101710.47;4974401;28;20134;-66
2021/01/16 05:10:40;;;;;;;32.53;17.52;;;;;;;-0.71;100.00;101711.25;4975276;28;20614;-66
2021/01/16 05:13:30;;;;;;;32.05;16.80;;;;;;;-0.69;100.00;101715.56;4974262;28;20044;-67
2021/01/16 05:16:14;;;;;;;27.23;15.02;;;;;;;-0.70;100.00;101708.59;4974336;28;20045;-65
2021/01/16 05:18:59;;;;;;;32.25;17.42;;;;;;;-0.69;99.24;101712.06;4975134;28;20122;-67
2021/01/16 05:21:43;;;;;;;26.73;14.18;;;;;;;-0.73;99.18;101707.81;4974160;28;20070;-65
2021/01/16 05:24:27;;;;;;;29.77;15.40;;;;;;;-0.81;99.57;101707.16;4974325;28;20105;-67
2021/01/16 05:27:11;;;;;;;;;;;;;;;-0.79;100.00;101698.38;4974306;28;20471;-65
2021/01/16 05:30:00;;;;;;;21.92;12.68;;;;;;;-0.81;99.71;101699.28;4974224;28;20299;-67
2021/01/16 05:32:44;;;;;;;29.73;15.70;;;;;;;-0.83;99.92;101698.47;4973808;28;20408;-67
2021/01/16 05:35:28;;;;;;;;;;;;;;;-0.83;99.92;101701.09;4975112;28;20053;-67
2021/01/16 05:38:14;;;;;;;32.22;17.63;;;;;;;-0.82;100.00;101708.06;4974109;28;19921;-66
2021/01/16 05:40:59;;;;;;;32.72;17.65;;;;;;;-0.78;99.71;101704.44;4974623;28;20133;-67
2021/01/16 05:43:43;;;;;;;30.45;16.02;;;;;;;-0.76;99.40;101702.66;4973669;28;20077;-64
2021/01/16 05:46:30;;;;;;;30.23;16.20;;;;;;;-0.80;99.30;101701.00;4974475;28;20054;-65
2021/01/16 05:49:18;;;;;;;26.27;14.75;;;;;;;-0.78;99.31;101696.59;4974652;28;20053;-66
2021/01/16 05:52:06;;;;;;;28.35;16.30;;;;;;;-0.86;99.41;101693.34;4973785;28;20129;-66
2021/01/16 05:54:51;;;;;;;32.50;16.23;;;;;;;-0.92;99.18;101690.84;4959983;28;20089;-64
2021/01/16 05:57:39;;;;;;;29.33;16.05;;;;;;;-0.93;99.72;101689.13;4974373;28;20073;-67
2021/01/16 06:00:24;;;;;;;30.20;16.02;;;;;;;-0.89;100.00;101686.41;4973675;28;20077;-66
2021/01/16 06:03:11;;;;;;;29.55;16.70;;;;;;;-0.84;100.00;101683.66;4974403;28;20073;-65
2021/01/16 06:05:54;;;;;;;27.33;13.68;;;;;;;-0.88;99.38;101684.63;4974488;28;20058;-65
2021/01/16 06:08:50;;;;;;;28.27;14.77;;;;;;;-1.02;99.54;101678.88;4974564;28;20077;-64
2021/01/16 06:11:37;;;;;;;30.65;16.95;;;;;;;-1.07;99.94;101676.38;4973497;28;20050;-66
2021/01/16 06:14:21;;;;;;;32.22;15.00;;;;;;;-1.02;99.84;101677.16;4973363;28;20137;-66
2021/01/16 06:17:06;;;;;;;26.67;13.63;;;;;;;-1.06;99.55;101674.63;4973593;28;20074;-66
2021/01/16 06:19:51;;;;;;;29.70;14.32;;;;;;;-1.04;100.00;101678.06;4974411;28;20399;-66
2021/01/16 06:22:35;;;;;;;33.75;16.75;;;;;;;-1.02;99.45;101678.88;4974143;28;20104;-64
2021/01/16 06:25:21;;;;;;;28.85;14.85;;;;;;;-1.06;98.68;101685.13;4974139;28;20104;-65
2021/01/16 06:28:07;;;;;;;28.60;15.25;;;;;;;-1.13;99.07;101680.91;4973377;28;20074;-67
2021/01/16 06:30:54;;;;;;;27.23;13.98;;;;;;;-1.05;99.18;101679.81;4973403;28;20141;-65
2021/01/16 06:33:55;;;;;;;32.75;13.68;;;;;;;-1.14;98.69;101684.44;4974336;28;20050;-65
2021/01/16 06:36:39;;;;;;;29.05;15.88;;;;;;;-1.20;99.52;101690.69;4976818;28;20408;-65
2021/01/16 06:39:23;;;;;;;28.95;16.08;;;;;;;-1.18;99.94;101691.50;4978237;28;20516;-66
2021/01/16 06:42:13;;;;;;;28.25;14.73;;;;;;;-1.15;99.55;101693.19;4976833;28;20069;-67
2021/01/16 06:45:07;;;;;;;31.77;15.07;;;;;;;-1.21;99.98;101685.47;4976648;28;20430;-65
2021/01/16 06:47:55;;;;;;;;;;;;;;;-1.18;100.00;101682.75;4977017;28;20069;-65
2021/01/16 06:50:39;;;;;;;33.08;16.30;;;;;;;-1.16;100.00;101681.84;4976758;28;20001;-65
2021/01/16 06:53:25;;;;;;;29.15;16.38;;;;;;;-1.11;99.92;101682.59;4976757;28;20519;-65
2021/01/16 06:56:09;;;;;;;29.83;16.13;;;;;;;-1.11;98.94;101686.97;4977228;28;20054;-65
2021/01/16 06:58:54;;;;;;;31.38;16.73;;;;;;;-1.11;99.17;101689.59;4962983;28;20050;-66
2021/01/16 07:01:38;;;;;;;33.10;16.55;;;;;;;-1.12;98.46;101693.09;4976587;28;20058;-67
2021/01/16 07:04:25;;;;;;;29.52;15.25;;;;;;;-1.09;99.34;101703.47;4976588;28;20101;-67
2021/01/16 07:07:10;;;;;;;24.42;12.90;;;;;;;-1.15;97.96;101703.66;4963133;28;20510;-67
2021/01/16 07:10:00;;;;;;;31.48;15.40;;;;;;;-1.14;98.03;101706.22;4977298;28;20560;-66
2021/01/16 07:12:48;;;;;;;32.05;16.98;;;;;;;-1.12;96.68;101707.06;4976102;28;20046;-66
2021/01/16 07:15:32;;;;;;;30.02;15.13;;;;;;;-1.12;97.22;101696.59;4976240;28;20109;-66
2021/01/16 07:18:18;;;;;;;24.63;11.98;;;;;;;-1.15;96.41;101694.03;4962638;28;20431;-66
2021/01/16 07:21:03;;;;;;;27.58;12.73;;;;;;;-1.28;96.79;101691.72;4976271;28;20411;-65
2021/01/16 07:23:48;;;;;;;31.98;16.20;;;;;;;-1.25;97.49;101691.69;4976740;28;20054;-65
2021/01/16 07:26:34;;;;;;;28.40;15.63;;;;;;;-1.31;97.18;101697.91;4976747;28;20587;-66
2021/01/16 07:29:20;;;;;;;29.70;14.63;;;;;;;-1.24;97.46;101696.00;4977019;28;20049;-66
2021/01/16 07:32:14;;;;;;;30.55;16.13;;;;;;;-1.20;97.43;101706.38;4976905;28;20519;-66
2021/01/16 07:34:58;;;;;;;30.88;16.27;;;;;;;-1.16;97.26;101704.56;4976250;28;20105;-65
2021/01/16 07:37:44;;;;;;;31.90;15.38;;;;;;;-1.19;96.21;101702.84;4976833;28;20463;-66
2021/01/16 07:40:29;;;;;;;31.35;14.88;;;;;;;-1.26;95.94;101700.44;4975551;28;20045;-65
2021/01/16 07:43:28;;;;;;;28.95;15.45;;;;;;;-1.27;96.33;101709.19;4975508;28;20522;-66
2021/01/16 07:46:18;;;;;;;30.95;16.30;;;;;;;-1.26;96.26;101705.66;4975368;28;20515;-65
2021/01/16 07:49:04;;;;;;;29.23;14.55;;;;;;;-1.29;96.31;101701.34;4975693;28;20050;-65
2021/01/16 07:51:54;;;;;;;31.42;17.05;;;;;;;-1.26;96.30;101700.44;4975483;28;20077;-67
2021/01/16 07:54:41;;;;;;;33.20;16.60;;;;;;;-1.29;96.40;101695.25;4975262;28;20046;-65
2021/01/16 07:57:30;;;;;;;30.30;15.48;;;;;;;-1.30;96.64;101699.63;4976169;28;20073;-66
2021/01/16 08:00:16;;;;;;;32.20;16.23;;;;;;;-1.29;96.75;101692.63;4975241;28;20101;-66
2021/01/16 08:03:15;;;;;;;33.33;17.88;;;;;;;-1.29;97.01;101697.88;4961415;28;20507;-65
2021/01/16 08:06:31;;;;;;;34.63;16.40;;;;;;;-1.26;97.70;101684.72;4961580;28;20105;-65
2021/01/16 08:09:45;;;;;;;32.67;17.13;;;;;;;-1.17;96.19;101687.13;4975029;28;20118;-66
2021/01/16 08:12:29;;;;;;;33.40;17.93;;;;;;;-1.07;96.61;101683.41;4975952;28;20073;-65
2021/01/16 08:15:17;;;;;;;35.67;17.05;;;;;;;-1.13;96.22;101687.00;4975846;28;20542;-65
2021/01/16 08:18:02;;;;;;;28.13;12.93;;;;;;;-1.10;95.81;101672.97;4975917;28;20093;-64
2021/01/16 08:20:48;;;;;;;33.25;17.40;;;;;;;-1.13;95.85;101681.75;4961634;28;20109;-66
2021/01/16 08:23:45;;;;;;;36.25;17.05;;;;;;;-1.07;95.82;101676.38;4974675;28;20098;-65
2021/01/16 08:26:29;;;;;;;32.33;16.45;;;;;;;-1.09;96.20;101677.31;4975692;28;20050;-66
2021/01/16 08:29:17;;;;;;;34.22;17.90;;;;;;;-1.04;95.84;101678.91;4974671;28;20487;-66
2021/01/16 08:32:11;;;;;;;35.45;18.90;;;;;;;-1.02;95.96;101678.88;4974869;28;20052;-64
2021/01/16 08:34:58;;;;;;;36.47;17.63;;;;;;;-1.02;95.83;101684.13;4974829;28;20101;-64
2021/01/16 08:37:42;;;;;;;31.42;17.52;;;;;;;-0.94;95.91;101679.56;4974482;28;20057;-67
2021/01/16 08:40:35;;;;;;;37.53;18.17;;;;;;;-0.95;94.64;101690.94;4960922;28;20078;-66
2021/01/16 08:43:44;;;;;;;36.92;18.60;;;;;;;-1.01;95.14;101691.06;4974511;28;20058;-67
2021/01/16 08:46:36;;;;;;;35.05;17.85;;;;;;;-1.01;95.81;101693.69;4974363;28;20566;-66
2021/01/16 08:49:20;;;;;;;33.38;17.60;;;;;;;-0.94;95.23;101692.66;4960778;28;20057;-67
2021/01/16 08:52:04;;;;;;;33.42;18.20;;;;;;;-0.95;95.68;101698.78;4974319;28;20045;-66
2021/01/16 08:54:59;;;;;;;34.42;17.20;;;;;;;-0.87;94.88;101697.69;4974537;28;20061;-67
2021/01/16 08:57:43;;;;;;;33.67;17.67;;;;;;;-0.79;94.69;101700.09;4974084;28;20062;-67
2021/01/16 09:00:29;;;;;;;39.70;18.70;;;;;;;-0.85;94.20;101701.13;4974008;28;20053;-67
2021/01/16 09:03:19;;;;;;;32.80;16.17;;;;;;;-0.82;94.05;101705.44;4960866;28;20094;-67
2021/01/16 09:06:04;;;;;;;30.48;15.20;;;;;;;-0.81;94.07;101701.91;4975183;28;20459;-65
2021/01/16 09:08:48;;;;;;;34.25;17.40;;;;;;;-0.85;93.88;101698.50;4975163;28;20502;-65
2021/01/16 09:11:32;;;;;;;35.88;14.63;;;;;;;-0.83;93.80;101701.09;4974945;28;20158;-65
2021/01/16 09:14:19;;;;;;;34.58;17.60;;;;;;;-0.79;93.67;101698.38;4975018;28;20112;-66
2021/01/16 09:17:20;;;;;;;32.47;17.35;;;;;;;-0.78;94.14;101704.44;4975112;28;20053;-67
2021/01/16 09:20:05;;;;;;;36.58;18.40;;;;;;;-0.68;94.60;101700.69;4973853;28;20085;-65
2021/01/16 09:22:49;;;;;;;28.20;13.13;;;;;;;-0.61;93.35;101697.03;4974690;28;20054;-65
2021/01/16 09:25:40;;;;;;;23.13;11.45;;;;;;;-0.71;92.60;101703.41;4974694;28;20082;-67
2021/01/16 09:28:44;;;;;;;34.33;17.60;;;;;;;-0.75;93.17;101700.00;4973695;28;20093;-67
2021/01/16 09:31:40;;;;;;;33.88;18.42;;;;;;;-0.82;93.80;101702.81;4974904;28;20121;-66
2021/01/16 09:34:24;;;;;;;40.97;19.08;;;;;;;-0.84;94.17;101699.38;4974757;28;20049;-67
2021/01/16 09:37:22;;;;;;;29.65;14.65;;;;;;;-0.88;93.78;101700.34;4974450;28;20097;-67
2021/01/16 09:40:09;;;;;;;36.80;16.77;;;;;;;-0.87;94.06;101699.44;4974054;28;20049;-66
2021/01/16 09:42:53;;;;;;;39.25;18.48;;;;;;;-0.87;94.20;101702.06;4973535;28;20074;-67
2021/01/16 09:45:48;;;;;;;;;;;;;;;-0.92;94.61;101707.44;4974975;28;20189;-65
2021/01/16 09:48:38;;;;;;;39.70;20.05;;;;;;;-0.71;94.99;101692.94;5028043;22;19928;-68
2021/01/16 09:51:31;;;;;;;35.38;19.45;;;;;;;-0.65;94.39;101687.53;5013475;28;20099;-68
2021/01/16 09:54:16;;;;;;;39.92;19.25;;;;;;;-0.54;94.66;101688.97;4998762;28;20065;-68
2021/01/16 09:57:01;;;;;;;40.95;18.17;;;;;;;-0.60;94.41;101677.78;4998447;28;20053;-67
2021/01/16 10:00:26;;;;;;;41.25;21.75;;;;;;;-0.60;95.47;101676.03;5012361;28;20152;-67
2021/01/16 10:03:10;;;;;;;35.42;15.60;;;;;;;-0.58;94.15;101681.22;5013232;28;20045;-68
2021/01/16 10:06:03;;;;;;;37.58;17.40;;;;;;;-0.45;94.57;101665.13;5013586;28;20099;-68
2021/01/16 10:08:48;;;;;;;48.72;21.90;;;;;;;-0.34;94.05;101663.06;5012203;28;20100;-67
2021/01/16 10:11:39;;;;;;;31.85;15.55;;;;;;;-0.42;93.67;101661.59;5017501;28;20112;-69
2021/01/16 10:14:25;;;;;;;39.15;20.58;;;;;;;-0.41;94.18;101658.06;5016338;28;20481;-68
2021/01/16 10:17:10;;;;;;;36.38;17.50;;;;;;;-0.25;93.97;101654.13;5016296;28;20053;-68
2021/01/16 10:20:05;;;;;;;34.38;17.13;;;;;;;-0.08;92.36;101641.38;5016331;28;20091;-68
2021/01/16 10:22:53;;;;;;;40.70;19.63;;;;;;;0.02;92.50;101634.03;5002090;28;20044;-68
2021/01/16 10:25:42;;;;;;;40.28;19.77;;;;;;;0.28;91.40;101631.50;5016234;28;20057;-68
2021/01/16 10:28:30;;;;;;;40.65;19.25;;;;;;;0.15;90.63;101624.94;5002273;28;20053;-68
2021/01/16 10:31:14;;;;;;;32.53;14.30;;;;;;;0.25;89.89;101630.75;5016092;28;20126;-69
2021/01/16 10:34:06;;;;;;;25.70;12.30;;;;;;;0.03;91.35;101633.13;5015827;28;20088;-69
2021/01/16 10:36:57;;;;;;;42.58;20.60;;;;;;;0.17;91.66;101625.75;5016920;28;20080;-68
2021/01/16 10:39:48;;;;;;;42.95;20.38;;;;;;;0.30;91.40;101629.69;5016028;28;20502;-69
2021/01/16 10:42:46;;;;;;;36.78;19.48;;;;;;;0.43;89.53;101624.94;5015592;28;20411;-68
2021/01/16 10:45:31;;;;;;;43.53;19.92;;;;;;;0.55;88.96;101620.13;5015948;28;20140;-68
2021/01/16 10:48:19;;;;;;;38.72;20.00;;;;;;;0.61;88.87;101617.31;5015493;28;20048;-68
2021/01/16 10:51:09;;;;;;;31.20;16.92;;;;;;;0.67;86.52;101618.88;5015826;28;20136;-68
2021/01/16 10:53:56;;;;;;;36.30;17.92;;;;;;;0.63;87.35;101617.28;5015757;28;20045;-68
2021/01/16 10:56:42;;;;;;;35.47;18.23;;;;;;;0.61;87.10;101606.81;5016587;28;20088;-68
2021/01/16 10:59:27;;;;;;;32.05;17.83;;;;;;;0.41;87.89;101601.34;5015664;28;20096;-68
2021/01/16 11:02:12;;;;;;;30.10;15.35;;;;;;;0.59;86.01;101600.78;5016242;28;20462;-68
2021/01/16 11:05:12;;;;;;;30.38;14.30;;;;;;;0.65;84.88;101590.06;5016464;28;20052;-67
2021/01/16 11:07:58;;;;;;;30.77;16.20;;;;;;;0.69;83.77;101588.19;5015415;28;20059;-68
2021/01/16 11:10:42;;;;;;;30.45;15.85;;;;;;;0.67;85.04;101588.28;5016455;28;20048;-68
2021/01/16 11:13:31;;;;;;;28.17;16.05;;;;;;;0.65;85.26;101586.59;5016476;28;20049;-68
2021/01/16 11:16:16;;;;;;;27.25;13.20;;;;;;;0.74;83.99;101586.28;5016328;28;20085;-68
2021/01/16 11:19:07;;;;;;;27.45;13.85;;;;;;;1.39;79.83;101585.72;5014884;28;20096;-68
2021/01/16 11:21:52;;;;;;;28.77;16.02;;;;;;;2.44;74.24;101571.94;5014723;28;20410;-68
2021/01/16 11:24:54;;;;;;;22.55;11.13;;;;;;;2.18;73.96;101573.91;5015897;28;20053;-68
2021/01/16 11:28:05;;;;;;;26.38;13.60;;;;;;;1.70;76.04;101560.03;5015823;28;20469;-68
2021/01/16 11:30:51;;;;;;;31.63;16.60;;;;;;;1.54;77.05;101569.38;5014995;28;20462;-68
2021/01/16 11:33:35;;;;;;;34.90;16.02;;;;;;;1.16;78.71;101572.53;5015055;28;20052;-67
2021/01/16 11:36:20;;;;;;;32.03;17.30;;;;;;;0.99;79.59;101561.78;5014688;28;20053;-68
2021/01/16 11:39:04;;;;;;;31.80;15.40;;;;;;;1.08;80.84;101561.47;5014719;28;20045;-68
2021/01/16 11:41:54;;;;;;;30.33;16.98;;;;;;;2.07;76.92;101552.44;5015882;28;20112;-68
2021/01/16 11:44:57;;;;;;;31.25;16.90;;;;;;;2.91;72.38;101547.16;5014531;28;20430;-68
2021/01/16 11:47:48;;;;;;;27.65;15.20;;;;;;;3.72;66.69;101532.94;5014288;28;20113;-67
2021/01/16 11:50:35;;;;;;;27.85;16.70;;;;;;;4.49;64.37;101523.91;5014714;28;20052;-68
2021/01/16 11:53:19;;;;;;;26.73;14.77;;;;;;;5.81;61.21;101508.03;5000793;28;20049;-68
2021/01/16 11:56:05;;;;;;;22.33;12.65;;;;;;;5.71;57.60;101514.75;5015594;28;20056;-68
2021/01/16 11:58:51;;;;;;;24.35;14.25;;;;;;;4.70;60.30;101505.19;5014491;28;20140;-68
2021/01/16 12:01:38;;;;;;;23.63;12.10;;;;;;;4.17;61.92;101517.56;5014529;28;20057;-68
2021/01/16 12:04:22;;;;;;;26.70;15.70;;;;;;;4.29;63.18;101509.03;5014462;28;20100;-68
2021/01/16 12:07:07;;;;;;;27.00;16.48;;;;;;;4.28;63.29;101506.50;5015109;28;20112;-68
2021/01/16 12:09:52;;;;;;;28.27;15.60;;;;;;;3.93;64.57;101507.31;5014262;28;20063;-68
2021/01/16 12:12:37;;;;;;;28.88;15.70;;;;;;;4.36;63.23;101497.25;5015025;28;20048;-68
2021/01/16 12:15:21;;;;;;;23.05;12.52;;;;;;;4.39;61.32;101501.53;5013975;28;20079;-68
2021/01/16 12:18:06;;;;;;;30.05;14.38;;;;;;;5.02;59.07;101494.69;5015119;28;20049;-68
2021/01/16 12:20:51;;;;;;;25.02;14.65;;;;;;;4.75;60.17;101491.75;5014083;28;20053;-67
2021/01/16 12:23:46;;;;;;;26.75;15.07;;;;;;;3.87;63.37;101486.50;5013810;28;20567;-68
2021/01/16 12:26:32;;;;;;;24.77;12.00;;;;;;;3.97;62.83;101490.44;5014770;28;20125;-68
2021/01/16 12:29:23;;;;;;;29.95;13.20;;;;;;;3.32;64.91;101482.94;5013859;28;20407;-68
2021/01/16 12:32:14;;;;;;;27.83;13.98;;;;;;;2.91;67.00;101483.06;4999462;28;20092;-68
2021/01/16 12:34:58;;;;;;;33.03;17.85;;;;;;;1.92;71.41;101489.94;5013766;28;20071;-68
2021/01/16 12:37:42;;;;;;;34.92;18.48;;;;;;;1.93;73.19;101489.00;5013425;28;20136;-67
2021/01/16 12:40:27;;;;;;;32.00;18.83;;;;;;;1.99;73.53;101478.22;5013797;28;20502;-68
2021/01/16 12:43:11;;;;;;;34.22;17.58;;;;;;;1.63;74.48;101470.94;4999469;28;20045;-68
2021/01/16 12:45:55;;;;;;;31.15;14.20;;;;;;;1.27;75.85;101473.19;5013434;28;20414;-68